sensor_id;sensor_type;location;lat;lon;timestamp;P1;durP1;ratioP1;P2;durP2;ratioP2
77864;SDS011;67061;48.524;9.040;2023-07-30T00:00:29;7.82;;;4.53;;
77864;SDS011;67061;48.524;9.040;2023-07-30T00:02:56;8.85;;;4.93;;
77864;SDS011;67061;48.524;9.040;2023-07-30T00:05:23;9.75;;;4.72;;
77864;SDS011;67061;48.524;9.040;2023-07-30T00:07:51;9.02;;;4.97;;
77864;SDS011;67061;48.524;9.040;2023-07-30T00:10:19;6.10;;;4.05;;
77864;SDS011;67061;48.524;9.040;2023-07-30T00:12:46;8.60;;;4.63;;
77864;SDS011;67061;48.524;9.040;2023-07-30T00:15:13;7.15;;;4.72;;
77864;SDS011;67061;48.524;9.040;2023-07-30T00:17:40;9.23;;;4.95;;
77864;SDS011;67061;48.524;9.040;2023-07-30T00:20:07;7.55;;;4.78;;
77864;SDS011;67061;48.524;9.040;2023-07-30T00:22:34;10.40;;;4.78;;
77864;SDS011;67061;48.524;9.040;2023-07-30T00:25:03;8.20;;;5.03;;
77864;SDS011;67061;48.524;9.040;2023-07-30T00:27:30;8.45;;;4.50;;
77864;SDS011;67061;48.524;9.040;2023-07-30T00:29:57;9.15;;;5.03;;
77864;SDS011;67061;48.524;9.040;2023-07-30T00:32:24;8.68;;;4.80;;
77864;SDS011;67061;48.524;9.040;2023-07-30T00:34:51;6.80;;;4.55;;
77864;SDS011;67061;48.524;9.040;2023-07-30T00:37:18;7.10;;;4.60;;
77864;SDS011;67061;48.524;9.040;2023-07-30T00:39:44;6.72;;;4.75;;
77864;SDS011;67061;48.524;9.040;2023-07-30T00:42:13;6.80;;;4.55;;
77864;SDS011;67061;48.524;9.040;2023-07-30T00:44:40;6.88;;;4.85;;
77864;SDS011;67061;48.524;9.040;2023-07-30T00:47:06;6.88;;;4.70;;
77864;SDS011;67061;48.524;9.040;2023-07-30T00:49:34;6.65;;;4.43;;
77864;SDS011;67061;48.524;9.040;2023-07-30T00:52:01;6.07;;;4.72;;
77864;SDS011;67061;48.524;9.040;2023-07-30T00:54:29;6.18;;;4.28;;
77864;SDS011;67061;48.524;9.040;2023-07-30T00:56:56;7.82;;;4.05;;
77864;SDS011;67061;48.524;9.040;2023-07-30T00:59:24;6.65;;;3.97;;
77864;SDS011;67061;48.524;9.040;2023-07-30T01:01:51;6.82;;;4.00;;
77864;SDS011;67061;48.524;9.040;2023-07-30T01:04:22;6.82;;;4.03;;
77864;SDS011;67061;48.524;9.040;2023-07-30T01:06:49;5.95;;;3.83;;
77864;SDS011;67061;48.524;9.040;2023-07-30T01:09:15;5.80;;;4.40;;
77864;SDS011;67061;48.524;9.040;2023-07-30T01:11:42;8.15;;;3.92;;
77864;SDS011;67061;48.524;9.040;2023-07-30T01:14:10;5.78;;;3.63;;
77864;SDS011;67061;48.524;9.040;2023-07-30T01:16:40;6.15;;;3.70;;
77864;SDS011;67061;48.524;9.040;2023-07-30T01:19:08;5.07;;;3.30;;
77864;SDS011;67061;48.524;9.040;2023-07-30T01:21:37;6.45;;;3.60;;
77864;SDS011;67061;48.524;9.040;2023-07-30T01:24:04;7.70;;;3.70;;
77864;SDS011;67061;48.524;9.040;2023-07-30T01:26:32;6.28;;;3.90;;
77864;SDS011;67061;48.524;9.040;2023-07-30T01:29:06;8.05;;;4.85;;
77864;SDS011;67061;48.524;9.040;2023-07-30T01:31:36;4.82;;;3.72;;
77864;SDS011;67061;48.524;9.040;2023-07-30T01:34:06;6.15;;;3.92;;
77864;SDS011;67061;48.524;9.040;2023-07-30T01:36:37;5.70;;;3.40;;
77864;SDS011;67061;48.524;9.040;2023-07-30T01:39:06;5.05;;;3.40;;
77864;SDS011;67061;48.524;9.040;2023-07-30T01:41:35;5.85;;;3.30;;
77864;SDS011;67061;48.524;9.040;2023-07-30T01:44:03;6.38;;;3.95;;
77864;SDS011;67061;48.524;9.040;2023-07-30T01:46:30;7.07;;;4.25;;
77864;SDS011;67061;48.524;9.040;2023-07-30T01:48:56;6.20;;;4.03;;
77864;SDS011;67061;48.524;9.040;2023-07-30T01:51:23;5.85;;;3.50;;
77864;SDS011;67061;48.524;9.040;2023-07-30T01:53:52;6.20;;;3.60;;
77864;SDS011;67061;48.524;9.040;2023-07-30T01:56:18;5.18;;;3.65;;
77864;SDS011;67061;48.524;9.040;2023-07-30T01:58:45;6.35;;;3.70;;
77864;SDS011;67061;48.524;9.040;2023-07-30T02:01:12;5.82;;;3.78;;
77864;SDS011;67061;48.524;9.040;2023-07-30T02:03:39;5.20;;;3.55;;
77864;SDS011;67061;48.524;9.040;2023-07-30T02:06:06;7.57;;;3.63;;
77864;SDS011;67061;48.524;9.040;2023-07-30T02:08:33;6.88;;;3.90;;
77864;SDS011;67061;48.524;9.040;2023-07-30T02:11:01;7.45;;;4.03;;
77864;SDS011;67061;48.524;9.040;2023-07-30T02:13:28;5.88;;;3.63;;
77864;SDS011;67061;48.524;9.040;2023-07-30T02:15:55;7.03;;;3.78;;
77864;SDS011;67061;48.524;9.040;2023-07-30T02:18:22;6.18;;;4.18;;
77864;SDS011;67061;48.524;9.040;2023-07-30T02:20:49;6.30;;;3.67;;
77864;SDS011;67061;48.524;9.040;2023-07-30T02:23:16;7.97;;;3.88;;
77864;SDS011;67061;48.524;9.040;2023-07-30T02:25:43;6.93;;;3.65;;
77864;SDS011;67061;48.524;9.040;2023-07-30T02:28:11;6.80;;;3.78;;
77864;SDS011;67061;48.524;9.040;2023-07-30T02:30:38;6.18;;;3.65;;
77864;SDS011;67061;48.524;9.040;2023-07-30T02:33:05;6.63;;;3.45;;
77864;SDS011;67061;48.524;9.040;2023-07-30T02:35:32;6.07;;;3.85;;
77864;SDS011;67061;48.524;9.040;2023-07-30T02:37:59;4.68;;;3.10;;
77864;SDS011;67061;48.524;9.040;2023-07-30T02:40:26;6.68;;;3.28;;
77864;SDS011;67061;48.524;9.040;2023-07-30T02:42:53;5.47;;;3.97;;
77864;SDS011;67061;48.524;9.040;2023-07-30T02:45:21;6.60;;;3.83;;
77864;SDS011;67061;48.524;9.040;2023-07-30T02:47:48;6.40;;;3.35;;
77864;SDS011;67061;48.524;9.040;2023-07-30T02:50:14;6.30;;;3.50;;
77864;SDS011;67061;48.524;9.040;2023-07-30T02:52:41;5.57;;;3.45;;
77864;SDS011;67061;48.524;9.040;2023-07-30T02:55:08;5.45;;;3.50;;
77864;SDS011;67061;48.524;9.040;2023-07-30T02:57:35;5.18;;;3.47;;
77864;SDS011;67061;48.524;9.040;2023-07-30T03:00:02;7.70;;;4.07;;
77864;SDS011;67061;48.524;9.040;2023-07-30T03:02:31;5.20;;;3.25;;
77864;SDS011;67061;48.524;9.040;2023-07-30T03:04:58;5.55;;;3.30;;
77864;SDS011;67061;48.524;9.040;2023-07-30T03:07:25;4.90;;;3.42;;
77864;SDS011;67061;48.524;9.040;2023-07-30T03:09:52;5.18;;;3.58;;
77864;SDS011;67061;48.524;9.040;2023-07-30T03:12:19;5.63;;;3.75;;
77864;SDS011;67061;48.524;9.040;2023-07-30T03:14:46;5.88;;;2.75;;
77864;SDS011;67061;48.524;9.040;2023-07-30T03:17:13;5.45;;;3.15;;
77864;SDS011;67061;48.524;9.040;2023-07-30T03:19:41;5.25;;;3.00;;
77864;SDS011;67061;48.524;9.040;2023-07-30T03:22:08;6.88;;;3.30;;
77864;SDS011;67061;48.524;9.040;2023-07-30T03:24:35;4.93;;;3.28;;
77864;SDS011;67061;48.524;9.040;2023-07-30T03:27:02;4.80;;;3.03;;
77864;SDS011;67061;48.524;9.040;2023-07-30T03:29:29;4.63;;;3.47;;
77864;SDS011;67061;48.524;9.040;2023-07-30T03:31:55;5.38;;;3.70;;
77864;SDS011;67061;48.524;9.040;2023-07-30T03:34:22;4.85;;;3.20;;
77864;SDS011;67061;48.524;9.040;2023-07-30T03:36:51;5.60;;;3.35;;
77864;SDS011;67061;48.524;9.040;2023-07-30T03:39:17;5.68;;;3.28;;
77864;SDS011;67061;48.524;9.040;2023-07-30T03:41:44;6.32;;;3.28;;
77864;SDS011;67061;48.524;9.040;2023-07-30T03:44:11;5.05;;;2.92;;
77864;SDS011;67061;48.524;9.040;2023-07-30T03:46:38;5.57;;;3.20;;
77864;SDS011;67061;48.524;9.040;2023-07-30T03:49:05;5.75;;;3.67;;
77864;SDS011;67061;48.524;9.040;2023-07-30T03:51:32;5.90;;;3.50;;
77864;SDS011;67061;48.524;9.040;2023-07-30T03:54:00;5.30;;;3.40;;
77864;SDS011;67061;48.524;9.040;2023-07-30T03:56:27;14.48;;;3.47;;
77864;SDS011;67061;48.524;9.040;2023-07-30T03:58:54;5.63;;;3.20;;
77864;SDS011;67061;48.524;9.040;2023-07-30T04:01:21;4.60;;;3.28;;
77864;SDS011;67061;48.524;9.040;2023-07-30T04:03:48;7.03;;;3.05;;
77864;SDS011;67061;48.524;9.040;2023-07-30T04:06:14;5.03;;;3.15;;
77864;SDS011;67061;48.524;9.040;2023-07-30T04:08:41;4.72;;;3.10;;
77864;SDS011;67061;48.524;9.040;2023-07-30T04:11:10;5.05;;;2.78;;
77864;SDS011;67061;48.524;9.040;2023-07-30T04:13:37;6.22;;;3.13;;
77864;SDS011;67061;48.524;9.040;2023-07-30T04:16:03;5.00;;;3.05;;
77864;SDS011;67061;48.524;9.040;2023-07-30T04:18:30;6.10;;;3.33;;
77864;SDS011;67061;48.524;9.040;2023-07-30T04:20:57;6.03;;;3.53;;
77864;SDS011;67061;48.524;9.040;2023-07-30T04:23:24;5.18;;;3.17;;
77864;SDS011;67061;48.524;9.040;2023-07-30T04:25:51;6.80;;;3.20;;
77864;SDS011;67061;48.524;9.040;2023-07-30T04:28:19;5.53;;;2.90;;
77864;SDS011;67061;48.524;9.040;2023-07-30T04:30:46;5.82;;;3.03;;
77864;SDS011;67061;48.524;9.040;2023-07-30T04:33:13;6.18;;;3.17;;
77864;SDS011;67061;48.524;9.040;2023-07-30T04:35:40;8.32;;;3.10;;
77864;SDS011;67061;48.524;9.040;2023-07-30T04:38:07;4.57;;;2.95;;
77864;SDS011;67061;48.524;9.040;2023-07-30T04:40:33;6.07;;;2.78;;
77864;SDS011;67061;48.524;9.040;2023-07-30T04:43:01;7.22;;;3.42;;
77864;SDS011;67061;48.524;9.040;2023-07-30T04:45:29;6.07;;;3.05;;
77864;SDS011;67061;48.524;9.040;2023-07-30T04:47:56;4.95;;;3.20;;
77864;SDS011;67061;48.524;9.040;2023-07-30T04:50:23;6.78;;;3.45;;
77864;SDS011;67061;48.524;9.040;2023-07-30T04:52:50;5.35;;;3.45;;
77864;SDS011;67061;48.524;9.040;2023-07-30T04:55:17;7.05;;;3.00;;
77864;SDS011;67061;48.524;9.040;2023-07-30T04:57:44;5.90;;;2.80;;
77864;SDS011;67061;48.524;9.040;2023-07-30T05:00:11;4.25;;;2.70;;
77864;SDS011;67061;48.524;9.040;2023-07-30T05:02:40;4.88;;;2.92;;
77864;SDS011;67061;48.524;9.040;2023-07-30T05:05:07;5.05;;;3.28;;
77864;SDS011;67061;48.524;9.040;2023-07-30T05:07:34;5.05;;;3.03;;
77864;SDS011;67061;48.524;9.040;2023-07-30T05:10:01;4.13;;;2.63;;
77864;SDS011;67061;48.524;9.040;2023-07-30T05:12:31;6.00;;;3.05;;
77864;SDS011;67061;48.524;9.040;2023-07-30T05:14:58;5.53;;;3.58;;
77864;SDS011;67061;48.524;9.040;2023-07-30T05:17:24;5.20;;;3.38;;
77864;SDS011;67061;48.524;9.040;2023-07-30T05:19:53;4.55;;;3.50;;
77864;SDS011;67061;48.524;9.040;2023-07-30T05:22:20;4.72;;;2.47;;
77864;SDS011;67061;48.524;9.040;2023-07-30T05:24:47;5.10;;;3.13;;
77864;SDS011;67061;48.524;9.040;2023-07-30T05:27:14;4.03;;;2.83;;
77864;SDS011;67061;48.524;9.040;2023-07-30T05:29:41;5.40;;;2.88;;
77864;SDS011;67061;48.524;9.040;2023-07-30T05:32:08;4.40;;;2.67;;
77864;SDS011;67061;48.524;9.040;2023-07-30T05:34:35;4.88;;;2.53;;
77864;SDS011;67061;48.524;9.040;2023-07-30T05:37:03;6.13;;;3.10;;
77864;SDS011;67061;48.524;9.040;2023-07-30T05:39:30;5.55;;;3.00;;
77864;SDS011;67061;48.524;9.040;2023-07-30T05:41:57;4.47;;;2.75;;
77864;SDS011;67061;48.524;9.040;2023-07-30T05:44:24;4.85;;;2.78;;
77864;SDS011;67061;48.524;9.040;2023-07-30T05:46:51;4.43;;;2.85;;
77864;SDS011;67061;48.524;9.040;2023-07-30T05:49:18;4.00;;;2.63;;
77864;SDS011;67061;48.524;9.040;2023-07-30T05:51:45;4.05;;;2.65;;
77864;SDS011;67061;48.524;9.040;2023-07-30T05:54:14;5.07;;;2.80;;
77864;SDS011;67061;48.524;9.040;2023-07-30T05:56:41;4.70;;;2.47;;
77864;SDS011;67061;48.524;9.040;2023-07-30T05:59:07;4.43;;;2.50;;
77864;SDS011;67061;48.524;9.040;2023-07-30T06:01:34;5.28;;;2.63;;
77864;SDS011;67061;48.524;9.040;2023-07-30T06:04:01;5.57;;;2.65;;
77864;SDS011;67061;48.524;9.040;2023-07-30T06:06:28;4.57;;;2.78;;
77864;SDS011;67061;48.524;9.040;2023-07-30T06:08:55;6.03;;;2.78;;
77864;SDS011;67061;48.524;9.040;2023-07-30T06:11:24;5.88;;;2.72;;
77864;SDS011;67061;48.524;9.040;2023-07-30T06:13:51;4.70;;;2.42;;
77864;SDS011;67061;48.524;9.040;2023-07-30T06:16:18;5.22;;;2.53;;
77864;SDS011;67061;48.524;9.040;2023-07-30T06:18:46;3.67;;;2.40;;
77864;SDS011;67061;48.524;9.040;2023-07-30T06:21:13;3.72;;;2.22;;
77864;SDS011;67061;48.524;9.040;2023-07-30T06:23:40;4.05;;;2.47;;
77864;SDS011;67061;48.524;9.040;2023-07-30T06:26:06;4.28;;;2.00;;
77864;SDS011;67061;48.524;9.040;2023-07-30T06:28:35;4.55;;;2.22;;
77864;SDS011;67061;48.524;9.040;2023-07-30T06:31:02;4.68;;;2.25;;
77864;SDS011;67061;48.524;9.040;2023-07-30T06:33:29;3.80;;;2.40;;
77864;SDS011;67061;48.524;9.040;2023-07-30T06:35:56;4.10;;;2.50;;
77864;SDS011;67061;48.524;9.040;2023-07-30T06:38:23;3.90;;;2.03;;
77864;SDS011;67061;48.524;9.040;2023-07-30T06:40:49;4.45;;;2.30;;
77864;SDS011;67061;48.524;9.040;2023-07-30T06:43:16;3.92;;;2.00;;
77864;SDS011;67061;48.524;9.040;2023-07-30T06:45:45;3.05;;;1.90;;
77864;SDS011;67061;48.524;9.040;2023-07-30T06:48:12;3.25;;;2.10;;
77864;SDS011;67061;48.524;9.040;2023-07-30T06:50:40;4.10;;;2.00;;
77864;SDS011;67061;48.524;9.040;2023-07-30T06:53:07;3.65;;;1.85;;
77864;SDS011;67061;48.524;9.040;2023-07-30T06:55:34;2.90;;;1.65;;
77864;SDS011;67061;48.524;9.040;2023-07-30T06:58:01;3.47;;;2.00;;
77864;SDS011;67061;48.524;9.040;2023-07-30T07:00:28;3.65;;;1.80;;
77864;SDS011;67061;48.524;9.040;2023-07-30T07:02:56;3.50;;;1.83;;
77864;SDS011;67061;48.524;9.040;2023-07-30T07:05:24;3.13;;;1.77;;
77864;SDS011;67061;48.524;9.040;2023-07-30T07:07:51;3.97;;;1.73;;
77864;SDS011;67061;48.524;9.040;2023-07-30T07:10:18;3.03;;;1.70;;
77864;SDS011;67061;48.524;9.040;2023-07-30T07:12:44;2.78;;;1.40;;
77864;SDS011;67061;48.524;9.040;2023-07-30T07:15:12;2.40;;;1.30;;
77864;SDS011;67061;48.524;9.040;2023-07-30T07:17:39;2.50;;;1.23;;
77864;SDS011;67061;48.524;9.040;2023-07-30T07:20:08;3.53;;;1.60;;
77864;SDS011;67061;48.524;9.040;2023-07-30T07:22:36;4.75;;;1.63;;
77864;SDS011;67061;48.524;9.040;2023-07-30T07:25:03;2.40;;;1.52;;
77864;SDS011;67061;48.524;9.040;2023-07-30T07:27:31;4.38;;;1.65;;
77864;SDS011;67061;48.524;9.040;2023-07-30T07:29:57;3.30;;;1.60;;
77864;SDS011;67061;48.524;9.040;2023-07-30T07:32:25;4.85;;;1.60;;
77864;SDS011;67061;48.524;9.040;2023-07-30T07:34:52;3.17;;;1.60;;
77864;SDS011;67061;48.524;9.040;2023-07-30T07:37:21;3.10;;;1.25;;
77864;SDS011;67061;48.524;9.040;2023-07-30T07:39:47;3.50;;;1.73;;
77864;SDS011;67061;48.524;9.040;2023-07-30T07:42:14;4.00;;;1.60;;
77864;SDS011;67061;48.524;9.040;2023-07-30T07:44:41;2.85;;;1.23;;
77864;SDS011;67061;48.524;9.040;2023-07-30T07:47:11;3.17;;;1.45;;
77864;SDS011;67061;48.524;9.040;2023-07-30T07:49:38;3.67;;;1.58;;
77864;SDS011;67061;48.524;9.040;2023-07-30T07:52:05;3.53;;;1.55;;
77864;SDS011;67061;48.524;9.040;2023-07-30T07:54:34;2.63;;;1.33;;
77864;SDS011;67061;48.524;9.040;2023-07-30T07:57:01;3.22;;;1.65;;
77864;SDS011;67061;48.524;9.040;2023-07-30T07:59:28;3.40;;;1.00;;
77864;SDS011;67061;48.524;9.040;2023-07-30T08:01:54;2.40;;;1.55;;
77864;SDS011;67061;48.524;9.040;2023-07-30T08:04:21;3.33;;;1.10;;
77864;SDS011;67061;48.524;9.040;2023-07-30T08:06:48;3.70;;;1.15;;
77864;SDS011;67061;48.524;9.040;2023-07-30T08:09:15;2.30;;;1.38;;
77864;SDS011;67061;48.524;9.040;2023-07-30T08:11:43;2.85;;;1.00;;
77864;SDS011;67061;48.524;9.040;2023-07-30T08:14:10;2.40;;;1.30;;
77864;SDS011;67061;48.524;9.040;2023-07-30T08:16:37;2.78;;;1.40;;
77864;SDS011;67061;48.524;9.040;2023-07-30T08:19:04;3.05;;;1.30;;
77864;SDS011;67061;48.524;9.040;2023-07-30T08:21:31;2.67;;;1.35;;
77864;SDS011;67061;48.524;9.040;2023-07-30T08:23:58;2.55;;;0.90;;
77864;SDS011;67061;48.524;9.040;2023-07-30T08:26:25;2.10;;;1.20;;
77864;SDS011;67061;48.524;9.040;2023-07-30T08:28:53;2.03;;;0.82;;
77864;SDS011;67061;48.524;9.040;2023-07-30T08:31:30;2.13;;;0.77;;
77864;SDS011;67061;48.524;9.040;2023-07-30T08:33:56;2.15;;;0.70;;
77864;SDS011;67061;48.524;9.040;2023-07-30T08:36:23;2.30;;;1.00;;
77864;SDS011;67061;48.524;9.040;2023-07-30T08:38:50;1.70;;;0.68;;
77864;SDS011;67061;48.524;9.040;2023-07-30T08:41:17;2.00;;;0.80;;
77864;SDS011;67061;48.524;9.040;2023-07-30T08:46:17;2.20;;;0.85;;
77864;SDS011;67061;48.524;9.040;2023-07-30T08:48:44;2.50;;;1.05;;
77864;SDS011;67061;48.524;9.040;2023-07-30T08:51:11;2.40;;;0.68;;
77864;SDS011;67061;48.524;9.040;2023-07-30T08:53:38;2.33;;;0.80;;
77864;SDS011;67061;48.524;9.040;2023-07-30T08:56:06;1.92;;;0.80;;
77864;SDS011;67061;48.524;9.040;2023-07-30T08:58:34;2.03;;;0.82;;
77864;SDS011;67061;48.524;9.040;2023-07-30T09:01:03;2.58;;;0.98;;
77864;SDS011;67061;48.524;9.040;2023-07-30T09:03:36;2.00;;;1.10;;
77864;SDS011;67061;48.524;9.040;2023-07-30T09:06:05;3.10;;;0.80;;
77864;SDS011;67061;48.524;9.040;2023-07-30T09:08:31;2.30;;;0.93;;
77864;SDS011;67061;48.524;9.040;2023-07-30T09:11:05;2.10;;;0.73;;
77864;SDS011;67061;48.524;9.040;2023-07-30T09:13:36;2.30;;;0.90;;
77864;SDS011;67061;48.524;9.040;2023-07-30T09:16:08;2.47;;;1.20;;
77864;SDS011;67061;48.524;9.040;2023-07-30T09:18:40;2.45;;;1.10;;
77864;SDS011;67061;48.524;9.040;2023-07-30T09:21:09;1.60;;;0.70;;
77864;SDS011;67061;48.524;9.040;2023-07-30T09:23:40;2.13;;;0.95;;
77864;SDS011;67061;48.524;9.040;2023-07-30T09:26:08;2.22;;;0.90;;
77864;SDS011;67061;48.524;9.040;2023-07-30T09:28:35;1.92;;;0.80;;
77864;SDS011;67061;48.524;9.040;2023-07-30T09:31:03;2.08;;;1.00;;
77864;SDS011;67061;48.524;9.040;2023-07-30T09:33:30;3.30;;;0.88;;
77864;SDS011;67061;48.524;9.040;2023-07-30T09:36:00;2.03;;;1.05;;
77864;SDS011;67061;48.524;9.040;2023-07-30T09:38:27;2.13;;;0.82;;
77864;SDS011;67061;48.524;9.040;2023-07-30T09:40:59;1.92;;;0.90;;
77864;SDS011;67061;48.524;9.040;2023-07-30T09:43:28;2.17;;;0.80;;
77864;SDS011;67061;48.524;9.040;2023-07-30T09:45:57;2.08;;;0.80;;
77864;SDS011;67061;48.524;9.040;2023-07-30T09:48:27;2.15;;;0.77;;
77864;SDS011;67061;48.524;9.040;2023-07-30T09:50:56;2.50;;;1.00;;
77864;SDS011;67061;48.524;9.040;2023-07-30T09:53:27;1.90;;;0.80;;
77864;SDS011;67061;48.524;9.040;2023-07-30T09:55:59;3.10;;;0.88;;
77864;SDS011;67061;48.524;9.040;2023-07-30T09:58:27;2.08;;;1.08;;
77864;SDS011;67061;48.524;9.040;2023-07-30T10:00:54;3.65;;;1.05;;
77864;SDS011;67061;48.524;9.040;2023-07-30T10:03:22;2.33;;;1.02;;
77864;SDS011;67061;48.524;9.040;2023-07-30T10:05:49;2.20;;;1.00;;
77864;SDS011;67061;48.524;9.040;2023-07-30T10:08:21;2.15;;;1.00;;
77864;SDS011;67061;48.524;9.040;2023-07-30T10:10:51;2.05;;;0.75;;
77864;SDS011;67061;48.524;9.040;2023-07-30T10:13:20;1.90;;;0.80;;
77864;SDS011;67061;48.524;9.040;2023-07-30T10:15:48;2.25;;;1.02;;
77864;SDS011;67061;48.524;9.040;2023-07-30T10:18:15;2.40;;;0.93;;
77864;SDS011;67061;48.524;9.040;2023-07-30T10:20:45;2.50;;;1.05;;
77864;SDS011;67061;48.524;9.040;2023-07-30T10:23:21;2.53;;;0.77;;
77864;SDS011;67061;48.524;9.040;2023-07-30T10:25:53;2.15;;;1.02;;
77864;SDS011;67061;48.524;9.040;2023-07-30T10:28:31;2.13;;;1.30;;
77864;SDS011;67061;48.524;9.040;2023-07-30T10:30:59;2.22;;;1.02;;
77864;SDS011;67061;48.524;9.040;2023-07-30T10:33:43;2.05;;;0.80;;
77864;SDS011;67061;48.524;9.040;2023-07-30T10:36:11;1.83;;;0.95;;
77864;SDS011;67061;48.524;9.040;2023-07-30T10:38:39;2.00;;;1.00;;
77864;SDS011;67061;48.524;9.040;2023-07-30T10:41:08;2.85;;;1.13;;
77864;SDS011;67061;48.524;9.040;2023-07-30T10:43:37;2.78;;;0.88;;
77864;SDS011;67061;48.524;9.040;2023-07-30T10:46:06;2.65;;;1.15;;
77864;SDS011;67061;48.524;9.040;2023-07-30T10:48:33;2.35;;;1.10;;
77864;SDS011;67061;48.524;9.040;2023-07-30T10:51:02;3.22;;;1.02;;
77864;SDS011;67061;48.524;9.040;2023-07-30T10:53:30;2.72;;;1.00;;
77864;SDS011;67061;48.524;9.040;2023-07-30T10:55:59;2.38;;;0.90;;
77864;SDS011;67061;48.524;9.040;2023-07-30T10:58:28;2.10;;;0.82;;
77864;SDS011;67061;48.524;9.040;2023-07-30T11:00:56;3.03;;;0.80;;
77864;SDS011;67061;48.524;9.040;2023-07-30T11:03:24;2.30;;;1.20;;
77864;SDS011;67061;48.524;9.040;2023-07-30T11:05:52;3.38;;;1.35;;
77864;SDS011;67061;48.524;9.040;2023-07-30T11:08:19;2.88;;;1.25;;
77864;SDS011;67061;48.524;9.040;2023-07-30T11:10:48;2.47;;;1.00;;
77864;SDS011;67061;48.524;9.040;2023-07-30T11:13:16;2.70;;;0.77;;
77864;SDS011;67061;48.524;9.040;2023-07-30T11:15:43;2.42;;;1.00;;
77864;SDS011;67061;48.524;9.040;2023-07-30T11:18:10;2.63;;;1.30;;
77864;SDS011;67061;48.524;9.040;2023-07-30T11:20:38;2.80;;;1.40;;
77864;SDS011;67061;48.524;9.040;2023-07-30T11:23:18;2.75;;;0.90;;
77864;SDS011;67061;48.524;9.040;2023-07-30T11:25:46;2.38;;;1.13;;
77864;SDS011;67061;48.524;9.040;2023-07-30T11:28:16;2.72;;;1.40;;
77864;SDS011;67061;48.524;9.040;2023-07-30T11:30:54;2.28;;;1.15;;
77864;SDS011;67061;48.524;9.040;2023-07-30T11:33:23;2.05;;;1.00;;
77864;SDS011;67061;48.524;9.040;2023-07-30T11:35:50;2.55;;;1.33;;
77864;SDS011;67061;48.524;9.040;2023-07-30T11:38:18;1.95;;;1.17;;
77864;SDS011;67061;48.524;9.040;2023-07-30T11:40:45;2.90;;;1.30;;
77864;SDS011;67061;48.524;9.040;2023-07-30T11:43:13;2.85;;;1.98;;
77864;SDS011;67061;48.524;9.040;2023-07-30T11:45:41;3.20;;;1.50;;
77864;SDS011;67061;48.524;9.040;2023-07-30T11:50:43;3.55;;;1.70;;
77864;SDS011;67061;48.524;9.040;2023-07-30T11:53:13;3.45;;;1.10;;
77864;SDS011;67061;48.524;9.040;2023-07-30T11:55:41;2.92;;;1.42;;
77864;SDS011;67061;48.524;9.040;2023-07-30T11:58:09;2.17;;;1.10;;
77864;SDS011;67061;48.524;9.040;2023-07-30T12:00:38;2.50;;;1.38;;
77864;SDS011;67061;48.524;9.040;2023-07-30T12:03:10;2.47;;;1.40;;
77864;SDS011;67061;48.524;9.040;2023-07-30T12:05:39;2.40;;;1.00;;
77864;SDS011;67061;48.524;9.040;2023-07-30T12:08:07;1.83;;;0.82;;
77864;SDS011;67061;48.524;9.040;2023-07-30T12:10:43;3.13;;;1.20;;
77864;SDS011;67061;48.524;9.040;2023-07-30T12:13:11;3.03;;;1.20;;
77864;SDS011;67061;48.524;9.040;2023-07-30T12:15:38;3.53;;;1.77;;
77864;SDS011;67061;48.524;9.040;2023-07-30T12:18:09;2.28;;;0.95;;
77864;SDS011;67061;48.524;9.040;2023-07-30T12:23:03;3.33;;;0.90;;
77864;SDS011;67061;48.524;9.040;2023-07-30T12:25:30;2.50;;;1.00;;
77864;SDS011;67061;48.524;9.040;2023-07-30T12:27:57;3.10;;;1.10;;
77864;SDS011;67061;48.524;9.040;2023-07-30T12:30:24;2.25;;;0.82;;
77864;SDS011;67061;48.524;9.040;2023-07-30T12:35:21;2.65;;;1.33;;
77864;SDS011;67061;48.524;9.040;2023-07-30T12:37:48;2.47;;;1.40;;
77864;SDS011;67061;48.524;9.040;2023-07-30T12:40:15;2.30;;;1.08;;
77864;SDS011;67061;48.524;9.040;2023-07-30T12:42:42;2.10;;;1.00;;
77864;SDS011;67061;48.524;9.040;2023-07-30T12:45:09;1.92;;;1.02;;
77864;SDS011;67061;48.524;9.040;2023-07-30T12:47:36;3.75;;;1.40;;
77864;SDS011;67061;48.524;9.040;2023-07-30T12:50:03;2.28;;;1.17;;
77864;SDS011;67061;48.524;9.040;2023-07-30T12:52:33;2.10;;;1.10;;
77864;SDS011;67061;48.524;9.040;2023-07-30T12:55:00;2.35;;;0.95;;
77864;SDS011;67061;48.524;9.040;2023-07-30T12:57:29;2.50;;;1.13;;
77864;SDS011;67061;48.524;9.040;2023-07-30T12:59:56;3.97;;;1.42;;
77864;SDS011;67061;48.524;9.040;2023-07-30T13:02:23;2.17;;;1.00;;
77864;SDS011;67061;48.524;9.040;2023-07-30T13:04:50;2.38;;;1.45;;
77864;SDS011;67061;48.524;9.040;2023-07-30T13:07:17;2.70;;;1.40;;
77864;SDS011;67061;48.524;9.040;2023-07-30T13:09:47;2.97;;;1.77;;
77864;SDS011;67061;48.524;9.040;2023-07-30T13:12:13;3.25;;;1.20;;
77864;SDS011;67061;48.524;9.040;2023-07-30T13:14:40;3.47;;;1.67;;
77864;SDS011;67061;48.524;9.040;2023-07-30T13:17:07;6.68;;;1.45;;
77864;SDS011;67061;48.524;9.040;2023-07-30T13:19:34;2.40;;;1.15;;
77864;SDS011;67061;48.524;9.040;2023-07-30T13:22:01;2.75;;;1.30;;
77864;SDS011;67061;48.524;9.040;2023-07-30T13:24:28;4.00;;;1.20;;
77864;SDS011;67061;48.524;9.040;2023-07-30T13:26:58;3.97;;;1.30;;
77864;SDS011;67061;48.524;9.040;2023-07-30T13:29:25;4.18;;;1.55;;
77864;SDS011;67061;48.524;9.040;2023-07-30T13:31:52;3.28;;;1.33;;
77864;SDS011;67061;48.524;9.040;2023-07-30T13:34:19;3.03;;;1.35;;
77864;SDS011;67061;48.524;9.040;2023-07-30T13:36:46;2.85;;;1.17;;
77864;SDS011;67061;48.524;9.040;2023-07-30T13:39:12;3.72;;;1.27;;
77864;SDS011;67061;48.524;9.040;2023-07-30T13:41:40;3.38;;;1.52;;
77864;SDS011;67061;48.524;9.040;2023-07-30T13:44:08;3.05;;;1.50;;
77864;SDS011;67061;48.524;9.040;2023-07-30T13:46:36;2.60;;;1.38;;
77864;SDS011;67061;48.524;9.040;2023-07-30T13:49:03;2.58;;;1.30;;
77864;SDS011;67061;48.524;9.040;2023-07-30T13:51:30;2.20;;;1.17;;
77864;SDS011;67061;48.524;9.040;2023-07-30T13:53:57;3.22;;;1.35;;
77864;SDS011;67061;48.524;9.040;2023-07-30T13:56:24;2.90;;;1.60;;
77864;SDS011;67061;48.524;9.040;2023-07-30T13:58:51;3.33;;;1.58;;
77864;SDS011;67061;48.524;9.040;2023-07-30T14:01:20;2.30;;;1.20;;
77864;SDS011;67061;48.524;9.040;2023-07-30T14:03:47;3.42;;;1.92;;
77864;SDS011;67061;48.524;9.040;2023-07-30T14:06:14;3.60;;;1.65;;
77864;SDS011;67061;48.524;9.040;2023-07-30T14:08:41;3.90;;;1.65;;
77864;SDS011;67061;48.524;9.040;2023-07-30T14:11:08;3.60;;;1.23;;
77864;SDS011;67061;48.524;9.040;2023-07-30T14:13:34;2.47;;;1.38;;
77864;SDS011;67061;48.524;9.040;2023-07-30T14:16:01;5.82;;;1.60;;
77864;SDS011;67061;48.524;9.040;2023-07-30T14:18:30;3.67;;;0.95;;
77864;SDS011;67061;48.524;9.040;2023-07-30T14:20:57;2.72;;;1.50;;
77864;SDS011;67061;48.524;9.040;2023-07-30T14:23:24;2.67;;;1.20;;
77864;SDS011;67061;48.524;9.040;2023-07-30T14:25:50;2.92;;;1.13;;
77864;SDS011;67061;48.524;9.040;2023-07-30T14:28:17;4.63;;;1.50;;
77864;SDS011;67061;48.524;9.040;2023-07-30T14:30:44;2.90;;;1.20;;
77864;SDS011;67061;48.524;9.040;2023-07-30T14:33:11;3.47;;;1.33;;
77864;SDS011;67061;48.524;9.040;2023-07-30T14:35:40;3.40;;;1.20;;
77864;SDS011;67061;48.524;9.040;2023-07-30T14:38:06;3.13;;;0.88;;
77864;SDS011;67061;48.524;9.040;2023-07-30T14:40:35;3.05;;;1.38;;
77864;SDS011;67061;48.524;9.040;2023-07-30T14:43:01;4.15;;;1.10;;
77864;SDS011;67061;48.524;9.040;2023-07-30T14:45:28;2.88;;;1.60;;
77864;SDS011;67061;48.524;9.040;2023-07-30T14:47:55;5.53;;;1.38;;
77864;SDS011;67061;48.524;9.040;2023-07-30T14:50:22;3.08;;;1.45;;
77864;SDS011;67061;48.524;9.040;2023-07-30T14:52:51;3.42;;;1.35;;
77864;SDS011;67061;48.524;9.040;2023-07-30T14:55:17;3.15;;;2.13;;
77864;SDS011;67061;48.524;9.040;2023-07-30T14:57:44;4.97;;;1.73;;
77864;SDS011;67061;48.524;9.040;2023-07-30T15:00:12;3.63;;;1.60;;